Omaha, NE (68127)

10:06 PM CDT on August 27, 2015 (GMT -0500)
APRSWXNET | | Change Station
CLOSE
Current Station
Personal Weather Station
Location: Omaha, NE
Elevation: 1151 ft
Nearby Weather Stations

Elev 1151 ft 41.19 °N, 96.06 °W | Updated 18 minutes ago

Overcast
Overcast
73 °F
Feels Like 72 °F
N
0
Wind Variable Wind from SW
Gusts 2.0 mph

Today
High -- | Low -- °F
--% Chance of Precip.
Yesterday
High -- | Low -- °F
Precip. -- in
6:45 AM 8:05 PM
Waxing Gibbous, 96% visible
Pressure 29.92 in
Visibility 10.0 miles
Clouds Clear
Heat Index 72 °F
Dew Point 68 °F
Humidity 85%
Rainfall in
Snow Depth Not available.
UV 0 out of 12
Pollen 7.50 out of 12
Air Quality Not available.
Flu Activity Not available.
METAR KMLE 280255Z AUTO 12007G14KT 10SM CLR 23/20 A2992 RMK AO2 LTG DSNT NE AND NW T02300198
Pressure 29.92 in
Visibility 10.0 miles
Clouds Clear
Heat Index 72 °F
Dew Point 68 °F
Humidity 85%
Rainfall in
Snow Depth Not available.
UV 0 out of 12
Pollen 7.50 out of 12
Air Quality Not available.
Flu Activity Not available.
METAR KMLE 280255Z AUTO 12007G14KT 10SM CLR 23/20 A2992 RMK AO2 LTG DSNT NE AND NW T02300198

10-Day Weather Forecast

×

Almanac

Astronomy

Aug. 27, 2015 Rise Set
Actual Time
Civil Twilight
Nautical Twilight
Astronomical Twilight
Moon
Length of Visible Light
Length of Day
Tomorrow will be .
, % of the Moon is Illuminated

Today's Extremes

State Highs State Lows

Community

WunderPhotos

Upload Photos

1,850,310 photos uploaded!

WunderBlogs® & News

Nearby

Air Quality

  Air Quality AQ Index Pollutant
Not available.

Snow Depth

Station Depth Elevation

Earthquake Activity

City Distance Mag. Time & Date
Minimum magnitude displayed is 2.5.

Coastal Water Temperatures

Place Temperature

Stations

Nearby Weather Stations

Station Location Temp. Windchill Dew Point Humidity Wind Precip. Elev Updated Type